createdAt,value
2019-05-19T00:00:34.774Z,59.71
2019-05-19T00:03:00.803Z,59.69
2019-05-19T00:05:26.797Z,59.95
2019-05-19T00:07:52.879Z,59.91
2019-05-19T00:10:18.905Z,59.96
2019-05-19T00:12:44.901Z,59.95
2019-05-19T00:15:10.927Z,59.63
2019-05-19T00:17:36.921Z,59.88
2019-05-19T00:20:02.932Z,59.88
2019-05-19T00:22:28.931Z,59.80
2019-05-19T00:24:54.954Z,59.83
2019-05-19T00:27:20.950Z,59.53
2019-05-19T00:29:46.960Z,59.58
2019-05-19T00:32:12.973Z,59.80
2019-05-19T00:34:38.980Z,59.41
2019-05-19T00:37:04.999Z,59.53
2019-05-19T00:39:30.997Z,59.71
2019-05-19T00:41:57.013Z,59.50
2019-05-19T00:44:23.007Z,59.72
2019-05-19T00:46:49.037Z,59.65
2019-05-19T00:49:15.050Z,59.61
2019-05-19T00:51:41.052Z,59.55
2019-05-19T00:54:07.071Z,59.30
2019-05-19T00:56:33.072Z,59.60
2019-05-19T00:58:59.076Z,59.32
2019-05-19T01:01:25.109Z,59.26
2019-05-19T01:03:51.101Z,59.55
2019-05-19T01:06:17.118Z,59.25
2019-05-19T01:08:43.134Z,59.52
2019-05-19T01:11:09.131Z,59.26
2019-05-19T01:13:35.162Z,59.52
2019-05-19T01:16:01.166Z,59.44
2019-05-19T01:18:27.190Z,59.42
2019-05-19T01:20:53.199Z,59.39
2019-05-19T01:23:19.217Z,59.07
2019-05-19T01:25:45.219Z,59.48
2019-05-19T01:28:11.211Z,59.41
2019-05-19T01:30:37.235Z,59.30
2019-05-19T01:33:03.233Z,59.24
2019-05-19T01:35:29.250Z,59.38
2019-05-19T01:37:55.244Z,59.42
2019-05-19T01:40:21.282Z,59.22
2019-05-19T01:42:47.280Z,59.32
2019-05-19T01:45:13.314Z,59.28
2019-05-19T01:47:39.320Z,59.23
2019-05-19T01:50:20.681Z,59.08
2019-05-19T01:52:31.347Z,59.04
2019-05-19T01:54:57.339Z,59.27
2019-05-19T01:57:23.361Z,59.25
2019-05-19T01:59:49.358Z,59.12
2019-05-19T02:02:15.389Z,59.14
2019-05-19T02:04:41.380Z,59.20
2019-05-19T02:07:07.387Z,59.03
2019-05-19T02:09:33.403Z,59.14
2019-05-19T02:11:59.401Z,59.08
2019-05-19T02:14:25.417Z,59.04
2019-05-19T02:16:51.437Z,59.07
2019-05-19T02:19:17.433Z,58.88
2019-05-19T02:21:43.454Z,59.13
2019-05-19T02:24:09.453Z,59.10
2019-05-19T02:26:35.466Z,59.04
2019-05-19T02:29:01.476Z,58.96
2019-05-19T02:31:27.483Z,59.02
2019-05-19T02:33:53.502Z,59.04
2019-05-19T02:36:19.497Z,58.92
2019-05-19T02:38:45.510Z,59.08
2019-05-19T02:41:11.601Z,58.99
2019-05-19T02:43:37.623Z,59.00
2019-05-19T02:46:03.638Z,59.03
2019-05-19T02:48:29.630Z,58.74
2019-05-19T02:50:55.652Z,59.01
2019-05-19T02:53:21.651Z,58.87
2019-05-19T02:55:47.662Z,58.99
2019-05-19T02:58:13.664Z,58.83
2019-05-19T03:00:39.686Z,58.86
2019-05-19T03:03:05.681Z,58.86
2019-05-19T03:05:31.682Z,58.91
2019-05-19T03:07:57.712Z,58.90
2019-05-19T03:10:23.698Z,58.95
2019-05-19T03:12:49.725Z,58.68
2019-05-19T03:15:15.732Z,58.93
2019-05-19T03:17:41.748Z,58.93
2019-05-19T03:20:07.752Z,58.90
2019-05-19T03:22:33.763Z,58.89
2019-05-19T03:24:59.775Z,58.87
2019-05-19T03:27:25.774Z,58.82
2019-05-19T03:29:51.793Z,58.87
2019-05-19T03:32:17.799Z,58.87
2019-05-19T03:34:43.803Z,58.83
2019-05-19T03:37:09.810Z,58.76
2019-05-19T03:39:35.805Z,58.79
2019-05-19T03:42:01.923Z,58.81
2019-05-19T03:44:27.936Z,58.79
2019-05-19T03:46:53.940Z,58.85
2019-05-19T03:49:19.960Z,58.79
2019-05-19T03:51:45.960Z,58.64
2019-05-19T03:54:11.977Z,58.53
2019-05-19T03:56:37.983Z,58.55
2019-05-19T03:59:03.999Z,58.71
2019-05-19T04:01:29.986Z,58.69
2019-05-19T04:03:55.993Z,58.64
2019-05-19T04:06:22.060Z,58.73
2019-05-19T04:08:48.057Z,58.70
2019-05-19T04:11:14.074Z,58.51
2019-05-19T04:13:40.088Z,58.57
2019-05-19T04:16:06.121Z,58.68
2019-05-19T04:18:32.116Z,58.43
2019-05-19T04:20:58.108Z,58.79
2019-05-19T04:23:24.114Z,58.81
2019-05-19T04:25:50.140Z,58.81
2019-05-19T04:28:16.131Z,58.57
2019-05-19T04:30:42.152Z,58.64
2019-05-19T04:33:08.240Z,58.82
2019-05-19T04:35:34.260Z,58.66
2019-05-19T04:38:00.259Z,58.80
2019-05-19T04:40:26.283Z,58.84
2019-05-19T04:42:52.302Z,58.71
2019-05-19T04:45:18.659Z,58.88
2019-05-19T04:47:44.710Z,58.81
2019-05-19T04:50:10.700Z,58.65
2019-05-19T04:52:36.700Z,58.75
2019-05-19T04:55:02.722Z,59.01
2019-05-19T04:57:28.718Z,58.90
2019-05-19T04:59:54.891Z,58.70
2019-05-19T05:02:20.836Z,58.67
2019-05-19T05:04:46.832Z,58.89
2019-05-19T05:07:12.858Z,58.66
2019-05-19T05:09:38.900Z,58.73
2019-05-19T05:12:04.929Z,59.10
2019-05-19T05:14:30.904Z,58.88
2019-05-19T05:16:56.959Z,58.89
2019-05-19T05:19:22.957Z,58.67
2019-05-19T05:21:48.954Z,58.68
2019-05-19T05:24:14.966Z,58.80
2019-05-19T05:26:40.980Z,58.83
2019-05-19T05:29:07.118Z,58.95
2019-05-19T05:31:33.111Z,58.73
2019-05-19T05:33:59.256Z,58.66
2019-05-19T05:36:27.759Z,58.67
2019-05-19T05:38:51.312Z,58.57
2019-05-19T05:41:17.323Z,58.66
2019-05-19T05:43:43.338Z,58.62
2019-05-19T05:46:09.356Z,58.64
2019-05-19T05:48:35.355Z,58.63
2019-05-19T05:51:01.401Z,58.74
2019-05-19T05:53:27.524Z,58.96
2019-05-19T05:55:53.537Z,58.71
2019-05-19T05:58:19.536Z,59.09
2019-05-19T06:00:45.536Z,59.11
2019-05-19T06:03:11.658Z,59.23
2019-05-19T06:05:37.703Z,58.94
2019-05-19T06:08:03.760Z,59.30
2019-05-19T06:10:29.766Z,59.11
2019-05-19T06:12:56.432Z,58.98
2019-05-19T06:15:23.204Z,59.05
2019-05-19T06:17:49.189Z,59.10
2019-05-19T06:20:15.771Z,59.14
2019-05-19T06:22:55.094Z,58.91
2019-05-19T06:25:07.836Z,59.06
2019-05-19T06:27:33.853Z,59.42
2019-05-19T06:29:59.851Z,59.04
2019-05-19T06:32:25.880Z,59.76
2019-05-19T06:34:51.898Z,59.74
2019-05-19T06:37:17.925Z,59.34
2019-05-19T06:39:43.939Z,59.67
2019-05-19T06:42:09.936Z,59.83
2019-05-19T06:44:35.959Z,60.01
2019-05-19T06:47:01.971Z,59.63
2019-05-19T06:49:27.985Z,59.68
2019-05-19T06:51:53.989Z,60.07
2019-05-19T06:54:20.120Z,60.34
2019-05-19T06:56:46.137Z,59.73
2019-05-19T06:59:12.151Z,60.06
2019-05-19T07:01:38.188Z,60.58
2019-05-19T07:04:04.199Z,60.20
2019-05-19T07:06:30.460Z,60.62
2019-05-19T07:08:56.464Z,60.64
2019-05-19T07:11:22.473Z,60.19
2019-05-19T07:13:48.467Z,60.13
2019-05-19T07:16:14.486Z,59.93
2019-05-19T07:18:40.496Z,59.96
2019-05-19T07:21:06.490Z,60.17
2019-05-19T07:23:32.518Z,61.04
2019-05-19T07:25:58.523Z,61.32
2019-05-19T07:28:24.698Z,61.26
2019-05-19T07:30:50.716Z,61.13
2019-05-19T07:33:16.718Z,62.08
2019-05-19T07:35:42.853Z,61.55
2019-05-19T07:38:08.936Z,61.13
2019-05-19T07:40:34.937Z,61.71
2019-05-19T07:43:01.308Z,60.79
2019-05-19T07:45:27.324Z,61.07
2019-05-19T07:47:53.352Z,61.90
2019-05-19T07:50:19.379Z,62.11
2019-05-19T07:52:45.387Z,61.35
2019-05-19T07:55:11.380Z,61.99
2019-05-19T07:57:37.402Z,62.02
2019-05-19T08:00:03.439Z,61.00
2019-05-19T08:02:29.474Z,62.27
2019-05-19T08:04:55.457Z,61.41
2019-05-19T08:07:21.468Z,61.78
2019-05-19T08:09:47.488Z,61.65
2019-05-19T08:12:13.488Z,61.49
2019-05-19T08:14:39.521Z,61.45
2019-05-19T08:17:05.589Z,61.69
2019-05-19T08:19:31.597Z,61.46
2019-05-19T08:21:57.641Z,62.32
2019-05-19T08:24:23.700Z,62.37
2019-05-19T08:26:49.634Z,62.10
2019-05-19T08:29:15.626Z,62.37
2019-05-19T08:31:41.649Z,61.45
2019-05-19T08:34:07.966Z,61.65
2019-05-19T08:36:33.668Z,61.84
2019-05-19T08:38:59.676Z,62.07
2019-05-19T08:41:25.682Z,61.95
2019-05-19T08:43:53.351Z,61.38
2019-05-19T08:46:17.753Z,61.10
2019-05-19T08:48:43.748Z,61.32
2019-05-19T08:51:09.830Z,61.18
2019-05-19T08:53:35.827Z,61.17
2019-05-19T08:56:01.868Z,61.13
2019-05-19T08:58:27.862Z,61.17
2019-05-19T09:00:53.860Z,61.81
2019-05-19T09:03:19.890Z,61.91
2019-05-19T09:05:47.906Z,61.27
2019-05-19T09:08:11.983Z,61.36
2019-05-19T09:10:37.983Z,61.40
2019-05-19T09:13:04.010Z,61.43
2019-05-19T09:15:30.093Z,61.74
2019-05-19T09:17:56.065Z,61.70
2019-05-19T09:20:22.157Z,62.20
2019-05-19T09:22:48.191Z,61.71
2019-05-19T09:25:14.220Z,62.31
2019-05-19T09:27:40.230Z,62.00
2019-05-19T09:30:06.361Z,62.37
2019-05-19T09:32:32.459Z,62.58
2019-05-19T09:34:58.462Z,62.18
2019-05-19T09:37:24.542Z,61.67
2019-05-19T09:39:50.562Z,62.44
2019-05-19T09:42:16.560Z,61.62
2019-05-19T09:44:42.579Z,61.46
2019-05-19T09:47:08.572Z,61.88
2019-05-19T09:49:34.592Z,61.83
2019-05-19T09:52:00.610Z,62.04
2019-05-19T09:54:26.585Z,61.81
2019-05-19T09:56:52.616Z,62.36
2019-05-19T09:59:18.626Z,62.16
2019-05-19T10:01:44.636Z,61.84
2019-05-19T10:04:10.644Z,62.32
2019-05-19T10:06:39.234Z,61.55
2019-05-19T10:09:05.478Z,62.28
2019-05-19T10:11:31.487Z,62.47
2019-05-19T10:13:57.480Z,61.95
2019-05-19T10:16:24.334Z,62.20
2019-05-19T10:18:50.897Z,61.78
2019-05-19T10:21:16.924Z,62.43
2019-05-19T10:23:42.925Z,62.02
2019-05-19T10:26:11.398Z,61.80
2019-05-19T10:28:37.567Z,62.65
2019-05-19T10:31:03.703Z,62.85
2019-05-19T10:33:30.088Z,61.71
2019-05-19T10:35:56.102Z,61.94
2019-05-19T10:38:22.151Z,62.19
2019-05-19T10:40:48.746Z,62.19
2019-05-19T10:43:14.840Z,62.62
2019-05-19T10:45:40.843Z,62.09
2019-05-19T10:48:06.870Z,62.75
2019-05-19T10:50:32.873Z,61.81
2019-05-19T10:52:58.872Z,62.29
2019-05-19T10:55:36.127Z,62.68
2019-05-19T10:57:50.965Z,62.53
2019-05-19T11:00:16.997Z,62.06
2019-05-19T11:02:42.992Z,61.70
2019-05-19T11:05:11.211Z,61.75
2019-05-19T11:07:35.185Z,62.47
2019-05-19T11:10:01.207Z,62.00
2019-05-19T11:12:27.216Z,62.26
2019-05-19T11:14:53.229Z,62.41
2019-05-19T11:17:19.249Z,62.35
2019-05-19T11:19:45.248Z,62.20
2019-05-19T11:22:11.249Z,62.35
2019-05-19T11:24:37.269Z,61.58
2019-05-19T11:27:03.278Z,62.54
2019-05-19T11:29:29.292Z,62.72
2019-05-19T11:31:56.084Z,61.77
2019-05-19T11:34:22.095Z,62.92
2019-05-19T11:36:48.215Z,62.02
2019-05-19T11:39:14.225Z,63.01
2019-05-19T11:41:40.304Z,63.20
2019-05-19T11:44:06.310Z,63.10
2019-05-19T11:46:32.371Z,62.99
2019-05-19T11:48:58.309Z,61.91
2019-05-19T11:51:24.357Z,62.98
2019-05-19T11:53:50.473Z,62.98
2019-05-19T11:58:49.704Z,62.89
2019-05-19T12:01:15.770Z,62.11
2019-05-19T12:03:41.778Z,62.20
2019-05-19T12:06:07.800Z,62.74
2019-05-19T12:08:33.799Z,61.89
2019-05-19T12:10:59.883Z,62.73
2019-05-19T12:13:25.898Z,62.24
2019-05-19T12:15:51.892Z,61.89
2019-05-19T12:18:17.914Z,62.76
2019-05-19T12:20:43.909Z,62.95
2019-05-19T12:23:10.016Z,62.63
2019-05-19T12:25:36.008Z,62.16
2019-05-19T12:28:02.066Z,62.14
2019-05-19T12:30:28.074Z,62.78
2019-05-19T12:32:54.114Z,62.39
2019-05-19T12:35:20.242Z,61.80
2019-05-19T12:37:46.360Z,62.40
2019-05-19T12:40:12.392Z,62.10
2019-05-19T12:42:38.419Z,62.48
2019-05-19T12:45:04.408Z,61.64
2019-05-19T12:47:30.446Z,61.72
2019-05-19T12:49:56.449Z,61.60
2019-05-19T12:52:22.458Z,62.26
2019-05-19T12:54:48.500Z,61.58
2019-05-19T12:57:14.504Z,61.25
2019-05-19T12:59:40.525Z,61.98
2019-05-19T13:02:06.530Z,62.04
2019-05-19T13:04:32.597Z,61.85
2019-05-19T13:06:58.601Z,62.09
2019-05-19T13:09:24.613Z,62.19
2019-05-19T13:11:50.634Z,61.98
2019-05-19T13:14:16.639Z,61.83
2019-05-19T13:16:42.654Z,61.85
2019-05-19T13:19:08.654Z,62.39
2019-05-19T13:21:34.666Z,61.63
2019-05-19T13:24:00.667Z,62.00
2019-05-19T13:26:26.685Z,62.08
2019-05-19T13:28:52.683Z,61.87
2019-05-19T13:31:18.679Z,62.11
2019-05-19T13:33:44.702Z,62.13
2019-05-19T13:36:10.700Z,61.31
2019-05-19T13:38:36.714Z,61.57
2019-05-19T13:41:02.731Z,61.44
2019-05-19T13:43:28.805Z,61.88
2019-05-19T13:45:54.752Z,61.22
2019-05-19T13:48:20.780Z,62.01
2019-05-19T13:50:46.796Z,61.58
2019-05-19T13:53:12.916Z,61.93
2019-05-19T13:55:38.953Z,62.13
2019-05-19T13:58:04.976Z,61.71
2019-05-19T14:00:30.973Z,61.46
2019-05-19T14:02:57.008Z,62.04
2019-05-19T14:05:23.023Z,61.65
2019-05-19T14:07:49.053Z,62.01
2019-05-19T14:10:15.076Z,62.02
2019-05-19T14:12:41.081Z,62.20
2019-05-19T14:15:07.159Z,62.14
2019-05-19T14:17:33.161Z,61.39
2019-05-19T14:19:59.206Z,61.50
2019-05-19T14:22:25.188Z,61.98
2019-05-19T14:24:51.246Z,62.13
2019-05-19T14:27:29.451Z,62.06
2019-05-19T14:29:43.392Z,61.36
2019-05-19T14:32:09.694Z,62.25
2019-05-19T14:34:36.163Z,61.50
2019-05-19T14:37:02.286Z,62.23
2019-05-19T14:39:28.308Z,61.57
2019-05-19T14:41:54.334Z,61.43
2019-05-19T14:44:20.354Z,62.13
2019-05-19T14:46:46.348Z,61.84
2019-05-19T14:49:12.349Z,61.27
2019-05-19T14:51:38.809Z,61.27
2019-05-19T14:54:04.812Z,62.31
2019-05-19T14:56:33.594Z,61.88
2019-05-19T14:58:56.824Z,62.06
2019-05-19T15:01:22.981Z,61.25
2019-05-19T15:03:48.995Z,61.84
2019-05-19T15:06:15.017Z,62.30
2019-05-19T15:08:41.045Z,61.75
2019-05-19T15:11:07.041Z,62.31
2019-05-19T15:13:33.094Z,62.30
2019-05-19T15:15:59.082Z,61.70
2019-05-19T15:18:25.084Z,61.36
2019-05-19T15:20:51.102Z,62.42
2019-05-19T15:23:17.540Z,61.84
2019-05-19T15:25:43.551Z,62.06
2019-05-19T15:28:09.567Z,61.88
2019-05-19T15:30:35.564Z,61.33
2019-05-19T15:33:01.583Z,62.17
2019-05-19T15:35:27.577Z,61.91
2019-05-19T15:37:53.622Z,61.34
2019-05-19T15:40:19.661Z,61.62
2019-05-19T15:42:45.688Z,61.67
2019-05-19T15:45:11.798Z,61.37
2019-05-19T15:47:37.789Z,61.12
2019-05-19T15:50:03.848Z,61.59
2019-05-19T15:52:29.891Z,60.98
2019-05-19T15:54:56.509Z,61.15
2019-05-19T15:57:22.565Z,61.85
2019-05-19T15:59:48.607Z,61.06
2019-05-19T16:02:14.602Z,61.02
2019-05-19T16:04:40.803Z,61.43
2019-05-19T16:07:06.820Z,61.07
2019-05-19T16:09:32.811Z,61.27
2019-05-19T16:11:58.826Z,61.55
2019-05-19T16:14:24.822Z,61.23
2019-05-19T16:16:50.844Z,61.44
2019-05-19T16:19:16.851Z,61.14
2019-05-19T16:21:42.884Z,61.73
2019-05-19T16:24:08.888Z,61.74
2019-05-19T16:26:35.479Z,61.04
2019-05-19T16:29:01.507Z,61.61
2019-05-19T16:31:27.980Z,61.16
2019-05-19T16:33:54.005Z,61.52
2019-05-19T16:36:20.038Z,61.69
2019-05-19T16:38:46.044Z,61.21
2019-05-19T16:41:12.065Z,61.24
2019-05-19T16:43:38.084Z,61.25
2019-05-19T16:46:04.086Z,61.64
2019-05-19T16:48:30.100Z,61.36
2019-05-19T16:50:56.091Z,60.86
2019-05-19T16:53:22.119Z,61.00
2019-05-19T16:55:48.122Z,60.90
2019-05-19T16:58:21.253Z,61.16
2019-05-19T17:00:40.139Z,60.77
2019-05-19T17:03:06.158Z,61.01
2019-05-19T17:05:32.249Z,61.36
2019-05-19T17:07:58.240Z,60.80
2019-05-19T17:10:24.396Z,61.27
2019-05-19T17:12:50.387Z,60.63
2019-05-19T17:15:16.434Z,61.16
2019-05-19T17:17:42.432Z,61.33
2019-05-19T17:20:08.531Z,61.70
2019-05-19T17:22:34.546Z,61.91
2019-05-19T17:25:00.566Z,61.21
2019-05-19T17:27:26.582Z,61.50
2019-05-19T17:29:52.585Z,61.82
2019-05-19T17:32:18.599Z,61.23
2019-05-19T17:34:44.596Z,61.17
2019-05-19T17:37:10.631Z,61.39
2019-05-19T17:39:36.629Z,61.34
2019-05-19T17:42:02.734Z,61.28
2019-05-19T17:44:28.863Z,61.26
2019-05-19T17:46:55.461Z,61.94
2019-05-19T17:49:21.497Z,61.14
2019-05-19T17:51:47.501Z,61.87
2019-05-19T17:54:13.552Z,61.76
2019-05-19T17:56:39.581Z,61.91
2019-05-19T17:59:16.064Z,61.24
2019-05-19T18:01:31.972Z,61.76
2019-05-19T18:03:57.991Z,61.67
2019-05-19T18:06:24.005Z,61.21
2019-05-19T18:08:50.028Z,61.29
2019-05-19T18:11:16.101Z,61.76
2019-05-19T18:13:42.128Z,61.24
2019-05-19T18:16:08.128Z,61.59
2019-05-19T18:18:34.151Z,61.54
2019-05-19T18:21:00.161Z,61.89
2019-05-19T18:23:26.186Z,62.02
2019-05-19T18:25:52.200Z,61.91
2019-05-19T18:28:20.528Z,61.86
2019-05-19T18:30:47.173Z,61.30
2019-05-19T18:33:13.364Z,61.26
2019-05-19T18:35:39.411Z,61.54
2019-05-19T18:38:05.408Z,62.12
2019-05-19T18:40:31.507Z,62.39
2019-05-19T18:42:57.674Z,61.87
2019-05-19T18:45:23.669Z,61.99
2019-05-19T18:47:49.685Z,63.04
2019-05-19T18:50:16.392Z,62.91
2019-05-19T18:52:42.417Z,61.79
2019-05-19T18:55:08.422Z,62.77
2019-05-19T18:57:34.446Z,61.75
2019-05-19T19:00:00.454Z,61.71
2019-05-19T19:02:26.719Z,61.92
2019-05-19T19:04:52.779Z,61.84
2019-05-19T19:07:19.441Z,61.85
2019-05-19T19:09:45.453Z,62.05
2019-05-19T19:12:11.480Z,61.80
2019-05-19T19:14:37.478Z,61.64
2019-05-19T19:17:03.527Z,62.71
2019-05-19T19:19:29.525Z,62.34
2019-05-19T19:21:56.256Z,62.47
2019-05-19T19:24:22.272Z,62.19
2019-05-19T19:26:48.280Z,62.81
2019-05-19T19:29:14.298Z,63.56
2019-05-19T19:31:48.185Z,63.20
2019-05-19T19:34:06.411Z,62.31
2019-05-19T19:36:32.414Z,62.35
2019-05-19T19:38:58.430Z,62.07
2019-05-19T19:41:25.169Z,62.50
2019-05-19T19:43:51.162Z,62.25
2019-05-19T19:46:17.388Z,62.51
2019-05-19T19:48:43.474Z,62.33
2019-05-19T19:51:10.142Z,62.32
2019-05-19T19:53:36.512Z,62.23
2019-05-19T19:56:02.523Z,62.33
2019-05-19T19:58:28.541Z,62.31
2019-05-19T20:00:55.407Z,62.77
2019-05-19T20:03:24.321Z,63.00
2019-05-19T20:05:50.592Z,62.01
2019-05-19T20:08:16.641Z,62.21
2019-05-19T20:10:42.751Z,62.40
2019-05-19T20:13:08.753Z,62.83
2019-05-19T20:15:34.798Z,62.00
2019-05-19T20:18:00.849Z,62.39
2019-05-19T20:20:26.843Z,62.48
2019-05-19T20:22:53.703Z,62.35
2019-05-19T20:25:20.362Z,62.08
2019-05-19T20:27:46.380Z,62.01
2019-05-19T20:30:12.396Z,61.99
2019-05-19T20:32:38.401Z,62.24
2019-05-19T20:35:04.452Z,62.19
2019-05-19T20:37:30.417Z,62.06
2019-05-19T20:39:56.434Z,61.70
2019-05-19T20:42:22.576Z,61.77
2019-05-19T20:44:50.119Z,62.67
2019-05-19T20:47:16.262Z,61.87
2019-05-19T20:49:42.270Z,62.28
2019-05-19T20:52:08.313Z,61.81
2019-05-19T20:54:34.316Z,61.62
2019-05-19T20:57:00.349Z,61.69
2019-05-19T20:59:26.374Z,61.71
2019-05-19T21:01:52.471Z,61.90
2019-05-19T21:04:18.515Z,61.97
2019-05-19T21:06:44.677Z,61.78
2019-05-19T21:09:10.806Z,61.82
2019-05-19T21:11:36.818Z,61.64
2019-05-19T21:14:02.941Z,62.12
2019-05-19T21:16:28.968Z,61.53
2019-05-19T21:18:54.985Z,61.47
2019-05-19T21:21:21.022Z,61.45
2019-05-19T21:23:47.026Z,62.01
2019-05-19T21:26:13.060Z,61.43
2019-05-19T21:28:39.066Z,61.68
2019-05-19T21:31:06.327Z,61.32
2019-05-19T21:33:31.120Z,61.79
2019-05-19T21:35:57.173Z,61.32
2019-05-19T21:38:23.198Z,61.65
2019-05-19T21:40:49.211Z,61.37
2019-05-19T21:43:15.348Z,61.82
2019-05-19T21:45:41.356Z,61.67
2019-05-19T21:48:07.487Z,61.77
2019-05-19T21:50:33.519Z,61.80
2019-05-19T21:52:59.531Z,61.76
2019-05-19T21:55:25.552Z,61.58
2019-05-19T21:57:51.696Z,61.73
2019-05-19T22:00:17.846Z,61.58
2019-05-19T22:02:43.889Z,61.66
2019-05-19T22:05:09.893Z,61.62
2019-05-19T22:07:35.941Z,61.50
2019-05-19T22:10:01.947Z,61.45
2019-05-19T22:12:27.975Z,61.44
2019-05-19T22:14:53.976Z,61.67
2019-05-19T22:17:19.997Z,61.56
2019-05-19T22:19:46.123Z,61.45
2019-05-19T22:22:12.141Z,61.58
2019-05-19T22:24:38.163Z,61.34
2019-05-19T22:27:04.173Z,61.56
2019-05-19T22:29:30.238Z,61.54
2019-05-19T22:31:56.250Z,61.51
2019-05-19T22:34:22.371Z,61.54
2019-05-19T22:36:48.406Z,61.53
2019-05-19T22:39:14.421Z,60.84
2019-05-19T22:41:40.457Z,60.89
2019-05-19T22:44:06.467Z,61.31
2019-05-19T22:46:32.596Z,61.32
2019-05-19T22:48:58.609Z,61.40
2019-05-19T22:51:24.649Z,60.94
2019-05-19T22:53:50.659Z,60.91
2019-05-19T22:56:16.671Z,61.35
2019-05-19T22:58:42.722Z,61.45
2019-05-19T23:01:08.728Z,61.37
2019-05-19T23:03:34.767Z,61.27
2019-05-19T23:06:00.798Z,61.23
2019-05-19T23:08:26.809Z,61.22
2019-05-19T23:10:52.836Z,61.30
2019-05-19T23:13:18.843Z,61.26
2019-05-19T23:15:44.861Z,60.73
2019-05-19T23:18:10.919Z,61.23
2019-05-19T23:20:36.923Z,61.11
2019-05-19T23:23:02.950Z,60.95
2019-05-19T23:25:28.963Z,60.78
2019-05-19T23:27:55.019Z,60.92
2019-05-19T23:30:21.027Z,61.06
2019-05-19T23:32:47.054Z,61.13
2019-05-19T23:35:13.080Z,61.12
2019-05-19T23:37:39.093Z,60.89
2019-05-19T23:40:05.140Z,60.46
2019-05-19T23:42:31.145Z,60.96
2019-05-19T23:44:57.196Z,60.99
2019-05-19T23:47:23.197Z,60.95
2019-05-19T23:49:49.227Z,60.97
2019-05-19T23:52:15.245Z,61.02
2019-05-19T23:54:41.247Z,60.95
2019-05-19T23:57:07.304Z,60.96
2019-05-19T23:59:33.323Z,60.89
